sensor_id;sensor_type;location;lat;lon;timestamp;temperature;humidity
45339;DHT22;31071;51.478;5.710;2022-08-19T00:00:25;18.00;99.90
45339;DHT22;31071;51.478;5.710;2022-08-19T00:02:53;17.90;99.90
45339;DHT22;31071;51.478;5.710;2022-08-19T00:05:19;18.00;99.90
45339;DHT22;31071;51.478;5.710;2022-08-19T00:07:45;18.10;99.90
45339;DHT22;31071;51.478;5.710;2022-08-19T00:10:13;18.20;99.90
45339;DHT22;31071;51.478;5.710;2022-08-19T00:12:39;18.10;99.90
45339;DHT22;31071;51.478;5.710;2022-08-19T00:15:07;17.90;99.90
45339;DHT22;31071;51.478;5.710;2022-08-19T00:17:37;17.90;99.90
45339;DHT22;31071;51.478;5.710;2022-08-19T00:20:03;17.90;99.90
45339;DHT22;31071;51.478;5.710;2022-08-19T00:22:29;17.90;99.90
45339;DHT22;31071;51.478;5.710;2022-08-19T00:24:54;17.90;99.90
45339;DHT22;31071;51.478;5.710;2022-08-19T00:27:22;17.90;99.90
45339;DHT22;31071;51.478;5.710;2022-08-19T00:29:48;18.00;99.90
45339;DHT22;31071;51.478;5.710;2022-08-19T00:32:13;18.10;99.90
45339;DHT22;31071;51.478;5.710;2022-08-19T00:34:39;18.10;99.90
45339;DHT22;31071;51.478;5.710;2022-08-19T00:37:04;18.00;99.90
45339;DHT22;31071;51.478;5.710;2022-08-19T00:39:30;17.90;99.90
45339;DHT22;31071;51.478;5.710;2022-08-19T00:41:55;17.90;99.90
45339;DHT22;31071;51.478;5.710;2022-08-19T00:44:27;17.90;99.90
45339;DHT22;31071;51.478;5.710;2022-08-19T00:46:59;17.90;99.90
45339;DHT22;31071;51.478;5.710;2022-08-19T00:49:32;17.80;99.90
45339;DHT22;31071;51.478;5.710;2022-08-19T00:52:12;17.90;99.90
45339;DHT22;31071;51.478;5.710;2022-08-19T00:54:40;17.80;99.90
45339;DHT22;31071;51.478;5.710;2022-08-19T00:57:09;17.90;99.90
45339;DHT22;31071;51.478;5.710;2022-08-19T00:59:38;18.00;99.90
45339;DHT22;31071;51.478;5.710;2022-08-19T01:02:05;18.00;99.90
45339;DHT22;31071;51.478;5.710;2022-08-19T01:04:31;17.80;99.90
45339;DHT22;31071;51.478;5.710;2022-08-19T01:07:03;17.70;99.90
45339;DHT22;31071;51.478;5.710;2022-08-19T01:09:29;17.70;99.90
45339;DHT22;31071;51.478;5.710;2022-08-19T01:11:56;17.60;99.90
45339;DHT22;31071;51.478;5.710;2022-08-19T01:14:22;17.60;99.90
45339;DHT22;31071;51.478;5.710;2022-08-19T01:16:48;17.60;99.90
45339;DHT22;31071;51.478;5.710;2022-08-19T01:19:29;17.60;99.90
45339;DHT22;31071;51.478;5.710;2022-08-19T01:22:03;17.60;99.90
45339;DHT22;31071;51.478;5.710;2022-08-19T01:24:31;17.50;99.90
45339;DHT22;31071;51.478;5.710;2022-08-19T01:27:07;17.40;99.90
45339;DHT22;31071;51.478;5.710;2022-08-19T01:29:34;17.40;99.90
45339;DHT22;31071;51.478;5.710;2022-08-19T01:32:02;17.40;99.90
45339;DHT22;31071;51.478;5.710;2022-08-19T01:34:27;17.30;99.90
45339;DHT22;31071;51.478;5.710;2022-08-19T01:36:53;17.30;99.90
45339;DHT22;31071;51.478;5.710;2022-08-19T01:39:21;17.30;99.90
45339;DHT22;31071;51.478;5.710;2022-08-19T01:41:48;17.30;99.90
45339;DHT22;31071;51.478;5.710;2022-08-19T01:44:13;17.20;99.90
45339;DHT22;31071;51.478;5.710;2022-08-19T01:46:39;17.20;99.90
45339;DHT22;31071;51.478;5.710;2022-08-19T01:49:06;17.10;99.90
45339;DHT22;31071;51.478;5.710;2022-08-19T01:51:32;17.10;99.90
45339;DHT22;31071;51.478;5.710;2022-08-19T01:53:58;17.10;99.90
45339;DHT22;31071;51.478;5.710;2022-08-19T01:56:29;17.00;99.90
45339;DHT22;31071;51.478;5.710;2022-08-19T01:59:00;17.00;99.90
45339;DHT22;31071;51.478;5.710;2022-08-19T02:01:26;16.90;99.90
45339;DHT22;31071;51.478;5.710;2022-08-19T02:03:51;16.80;99.90
45339;DHT22;31071;51.478;5.710;2022-08-19T02:06:18;16.80;99.90
45339;DHT22;31071;51.478;5.710;2022-08-19T02:08:44;16.80;99.90
45339;DHT22;31071;51.478;5.710;2022-08-19T02:11:22;16.70;99.90
45339;DHT22;31071;51.478;5.710;2022-08-19T02:13:48;16.80;99.90
45339;DHT22;31071;51.478;5.710;2022-08-19T02:16:17;16.90;99.90
45339;DHT22;31071;51.478;5.710;2022-08-19T02:18:43;16.90;99.90
45339;DHT22;31071;51.478;5.710;2022-08-19T02:21:09;17.00;99.90
45339;DHT22;31071;51.478;5.710;2022-08-19T02:23:34;17.00;99.90
45339;DHT22;31071;51.478;5.710;2022-08-19T02:26:00;17.00;99.90
45339;DHT22;31071;51.478;5.710;2022-08-19T02:28:25;16.90;99.90
45339;DHT22;31071;51.478;5.710;2022-08-19T02:30:51;16.80;99.90
45339;DHT22;31071;51.478;5.710;2022-08-19T02:33:17;16.80;99.90
45339;DHT22;31071;51.478;5.710;2022-08-19T02:35:44;16.80;99.90
45339;DHT22;31071;51.478;5.710;2022-08-19T02:38:10;16.80;99.90
45339;DHT22;31071;51.478;5.710;2022-08-19T02:40:53;16.80;99.90
45339;DHT22;31071;51.478;5.710;2022-08-19T02:43:19;16.60;99.90
45339;DHT22;31071;51.478;5.710;2022-08-19T02:45:48;16.60;99.90
45339;DHT22;31071;51.478;5.710;2022-08-19T02:48:18;16.50;99.90
45339;DHT22;31071;51.478;5.710;2022-08-19T02:50:45;16.50;99.90
45339;DHT22;31071;51.478;5.710;2022-08-19T02:53:11;16.50;99.90
45339;DHT22;31071;51.478;5.710;2022-08-19T02:55:46;16.50;99.90
45339;DHT22;31071;51.478;5.710;2022-08-19T02:58:12;16.50;99.90
45339;DHT22;31071;51.478;5.710;2022-08-19T03:00:43;16.50;99.90
45339;DHT22;31071;51.478;5.710;2022-08-19T03:03:09;16.50;99.90
45339;DHT22;31071;51.478;5.710;2022-08-19T03:05:35;16.60;99.90
45339;DHT22;31071;51.478;5.710;2022-08-19T03:08:01;16.60;99.90
45339;DHT22;31071;51.478;5.710;2022-08-19T03:10:27;16.70;99.90
45339;DHT22;31071;51.478;5.710;2022-08-19T03:12:52;16.80;99.90
45339;DHT22;31071;51.478;5.710;2022-08-19T03:15:18;16.80;99.90
45339;DHT22;31071;51.478;5.710;2022-08-19T03:17:43;16.80;99.90
45339;DHT22;31071;51.478;5.710;2022-08-19T03:20:09;16.70;99.90
45339;DHT22;31071;51.478;5.710;2022-08-19T03:22:35;16.60;99.90
45339;DHT22;31071;51.478;5.710;2022-08-19T03:25:00;16.50;99.90
45339;DHT22;31071;51.478;5.710;2022-08-19T03:27:26;16.40;99.90
45339;DHT22;31071;51.478;5.710;2022-08-19T03:29:52;16.30;99.90
45339;DHT22;31071;51.478;5.710;2022-08-19T03:32:18;16.30;99.90
45339;DHT22;31071;51.478;5.710;2022-08-19T03:34:43;16.20;99.90
45339;DHT22;31071;51.478;5.710;2022-08-19T03:37:14;16.20;99.90
45339;DHT22;31071;51.478;5.710;2022-08-19T03:39:41;16.20;99.90
45339;DHT22;31071;51.478;5.710;2022-08-19T03:42:07;16.20;99.90
45339;DHT22;31071;51.478;5.710;2022-08-19T03:44:33;16.20;99.90
45339;DHT22;31071;51.478;5.710;2022-08-19T03:47:08;16.20;99.90
45339;DHT22;31071;51.478;5.710;2022-08-19T03:49:34;16.10;99.90
45339;DHT22;31071;51.478;5.710;2022-08-19T03:52:01;16.10;99.90
45339;DHT22;31071;51.478;5.710;2022-08-19T03:54:27;16.10;99.90
45339;DHT22;31071;51.478;5.710;2022-08-19T03:56:54;16.00;99.90
45339;DHT22;31071;51.478;5.710;2022-08-19T03:59:25;16.00;99.90
45339;DHT22;31071;51.478;5.710;2022-08-19T04:01:56;15.90;99.90
45339;DHT22;31071;51.478;5.710;2022-08-19T04:04:23;15.90;99.90
45339;DHT22;31071;51.478;5.710;2022-08-19T04:06:50;15.90;99.90
45339;DHT22;31071;51.478;5.710;2022-08-19T04:09:16;15.90;99.90
45339;DHT22;31071;51.478;5.710;2022-08-19T04:11:45;15.90;99.90
45339;DHT22;31071;51.478;5.710;2022-08-19T04:14:15;16.00;99.90
45339;DHT22;31071;51.478;5.710;2022-08-19T04:16:47;16.00;99.90
45339;DHT22;31071;51.478;5.710;2022-08-19T04:19:13;16.00;99.90
45339;DHT22;31071;51.478;5.710;2022-08-19T04:21:40;16.00;99.90
45339;DHT22;31071;51.478;5.710;2022-08-19T04:24:12;16.10;99.90
45339;DHT22;31071;51.478;5.710;2022-08-19T04:26:38;16.10;99.90
45339;DHT22;31071;51.478;5.710;2022-08-19T04:29:13;16.10;99.90
45339;DHT22;31071;51.478;5.710;2022-08-19T04:31:39;16.00;99.90
45339;DHT22;31071;51.478;5.710;2022-08-19T04:34:08;15.90;99.90
45339;DHT22;31071;51.478;5.710;2022-08-19T04:36:37;15.80;99.90
45339;DHT22;31071;51.478;5.710;2022-08-19T04:39:06;15.90;99.90
45339;DHT22;31071;51.478;5.710;2022-08-19T04:41:32;16.00;99.90
45339;DHT22;31071;51.478;5.710;2022-08-19T04:44:16;15.90;99.90
45339;DHT22;31071;51.478;5.710;2022-08-19T04:46:46;15.90;99.90
45339;DHT22;31071;51.478;5.710;2022-08-19T04:49:13;15.90;99.90
45339;DHT22;31071;51.478;5.710;2022-08-19T04:51:41;15.90;99.90
45339;DHT22;31071;51.478;5.710;2022-08-19T04:54:07;15.80;99.90
45339;DHT22;31071;51.478;5.710;2022-08-19T04:56:33;15.80;99.90
45339;DHT22;31071;51.478;5.710;2022-08-19T04:58:59;15.70;99.90
45339;DHT22;31071;51.478;5.710;2022-08-19T05:01:29;15.80;99.90
45339;DHT22;31071;51.478;5.710;2022-08-19T05:03:55;15.80;99.90
45339;DHT22;31071;51.478;5.710;2022-08-19T05:06:23;15.80;99.90
45339;DHT22;31071;51.478;5.710;2022-08-19T05:08:49;15.80;99.90
45339;DHT22;31071;51.478;5.710;2022-08-19T05:11:24;15.80;99.90
45339;DHT22;31071;51.478;5.710;2022-08-19T05:13:49;15.80;99.90
45339;DHT22;31071;51.478;5.710;2022-08-19T05:16:17;15.90;99.90
45339;DHT22;31071;51.478;5.710;2022-08-19T05:18:43;15.90;99.90
45339;DHT22;31071;51.478;5.710;2022-08-19T05:21:28;16.00;99.90
45339;DHT22;31071;51.478;5.710;2022-08-19T05:24:12;15.90;99.90
45339;DHT22;31071;51.478;5.710;2022-08-19T05:26:41;16.10;99.90
45339;DHT22;31071;51.478;5.710;2022-08-19T05:29:08;16.30;99.90
45339;DHT22;31071;51.478;5.710;2022-08-19T05:31:36;16.40;99.90
45339;DHT22;31071;51.478;5.710;2022-08-19T05:34:02;16.60;99.90
45339;DHT22;31071;51.478;5.710;2022-08-19T05:36:34;16.80;99.90
45339;DHT22;31071;51.478;5.710;2022-08-19T05:39:00;16.90;99.90
45339;DHT22;31071;51.478;5.710;2022-08-19T05:41:26;17.00;99.90
45339;DHT22;31071;51.478;5.710;2022-08-19T05:43:55;17.10;99.90
45339;DHT22;31071;51.478;5.710;2022-08-19T05:46:21;17.10;99.90
45339;DHT22;31071;51.478;5.710;2022-08-19T05:48:47;17.20;99.90
45339;DHT22;31071;51.478;5.710;2022-08-19T05:51:14;17.20;99.90
45339;DHT22;31071;51.478;5.710;2022-08-19T05:53:41;17.30;99.90
45339;DHT22;31071;51.478;5.710;2022-08-19T05:56:08;17.30;99.90
45339;DHT22;31071;51.478;5.710;2022-08-19T05:58:36;17.40;99.90
45339;DHT22;31071;51.478;5.710;2022-08-19T06:01:03;17.30;99.90
45339;DHT22;31071;51.478;5.710;2022-08-19T06:03:32;17.40;99.90
45339;DHT22;31071;51.478;5.710;2022-08-19T06:05:59;17.40;99.90
45339;DHT22;31071;51.478;5.710;2022-08-19T06:08:25;17.40;99.90
45339;DHT22;31071;51.478;5.710;2022-08-19T06:10:52;17.40;99.90
45339;DHT22;31071;51.478;5.710;2022-08-19T06:13:17;17.50;99.90
45339;DHT22;31071;51.478;5.710;2022-08-19T06:15:45;17.50;99.90
45339;DHT22;31071;51.478;5.710;2022-08-19T06:18:12;17.60;99.90
45339;DHT22;31071;51.478;5.710;2022-08-19T06:20:38;17.60;99.90
45339;DHT22;31071;51.478;5.710;2022-08-19T06:23:03;17.60;99.90
45339;DHT22;31071;51.478;5.710;2022-08-19T06:25:29;17.60;99.90
45339;DHT22;31071;51.478;5.710;2022-08-19T06:27:55;17.70;99.90
45339;DHT22;31071;51.478;5.710;2022-08-19T06:30:21;17.70;99.90
45339;DHT22;31071;51.478;5.710;2022-08-19T06:32:46;17.80;99.90
45339;DHT22;31071;51.478;5.710;2022-08-19T06:35:12;17.90;99.90
45339;DHT22;31071;51.478;5.710;2022-08-19T06:37:40;18.00;99.90
45339;DHT22;31071;51.478;5.710;2022-08-19T06:40:06;18.00;99.90
45339;DHT22;31071;51.478;5.710;2022-08-19T06:42:36;18.10;99.90
45339;DHT22;31071;51.478;5.710;2022-08-19T06:45:04;18.30;99.90
45339;DHT22;31071;51.478;5.710;2022-08-19T06:47:31;18.30;99.90
45339;DHT22;31071;51.478;5.710;2022-08-19T06:49:59;18.30;99.90
45339;DHT22;31071;51.478;5.710;2022-08-19T06:52:33;18.40;99.90
45339;DHT22;31071;51.478;5.710;2022-08-19T06:54:59;18.50;99.90
45339;DHT22;31071;51.478;5.710;2022-08-19T06:57:25;18.60;99.90
45339;DHT22;31071;51.478;5.710;2022-08-19T06:59:51;18.70;99.90
45339;DHT22;31071;51.478;5.710;2022-08-19T07:02:18;18.70;99.90
45339;DHT22;31071;51.478;5.710;2022-08-19T07:04:44;18.80;99.90
45339;DHT22;31071;51.478;5.710;2022-08-19T07:07:13;18.70;99.90
45339;DHT22;31071;51.478;5.710;2022-08-19T07:09:41;18.90;99.90
45339;DHT22;31071;51.478;5.710;2022-08-19T07:12:10;19.00;99.90
45339;DHT22;31071;51.478;5.710;2022-08-19T07:14:38;19.20;99.90
45339;DHT22;31071;51.478;5.710;2022-08-19T07:17:06;19.20;99.90
45339;DHT22;31071;51.478;5.710;2022-08-19T07:19:32;19.30;99.90
45339;DHT22;31071;51.478;5.710;2022-08-19T07:21:58;19.50;99.90
45339;DHT22;31071;51.478;5.710;2022-08-19T07:24:27;19.60;99.90
45339;DHT22;31071;51.478;5.710;2022-08-19T07:26:57;19.80;99.90
45339;DHT22;31071;51.478;5.710;2022-08-19T07:29:28;20.00;99.90
45339;DHT22;31071;51.478;5.710;2022-08-19T07:31:55;20.20;99.90
45339;DHT22;31071;51.478;5.710;2022-08-19T07:34:29;20.40;99.90
45339;DHT22;31071;51.478;5.710;2022-08-19T07:36:55;20.50;99.90
45339;DHT22;31071;51.478;5.710;2022-08-19T07:39:24;20.60;99.90
45339;DHT22;31071;51.478;5.710;2022-08-19T07:41:50;20.70;99.90
45339;DHT22;31071;51.478;5.710;2022-08-19T07:44:16;20.80;99.90
45339;DHT22;31071;51.478;5.710;2022-08-19T07:46:45;20.90;99.90
45339;DHT22;31071;51.478;5.710;2022-08-19T07:49:12;20.90;99.90
45339;DHT22;31071;51.478;5.710;2022-08-19T07:51:43;20.90;99.90
45339;DHT22;31071;51.478;5.710;2022-08-19T07:54:09;20.90;99.90
45339;DHT22;31071;51.478;5.710;2022-08-19T07:56:34;21.00;99.90
45339;DHT22;31071;51.478;5.710;2022-08-19T07:59:00;21.20;99.90
45339;DHT22;31071;51.478;5.710;2022-08-19T08:01:26;21.30;99.90
45339;DHT22;31071;51.478;5.710;2022-08-19T08:03:54;21.30;99.90
45339;DHT22;31071;51.478;5.710;2022-08-19T08:06:40;21.40;99.90
45339;DHT22;31071;51.478;5.710;2022-08-19T08:09:28;21.50;99.90
45339;DHT22;31071;51.478;5.710;2022-08-19T08:11:57;21.80;99.90
45339;DHT22;31071;51.478;5.710;2022-08-19T08:14:48;22.10;99.90
45339;DHT22;31071;51.478;5.710;2022-08-19T08:17:16;22.20;99.90
45339;DHT22;31071;51.478;5.710;2022-08-19T08:19:43;22.20;99.90
45339;DHT22;31071;51.478;5.710;2022-08-19T08:22:10;22.20;99.90
45339;DHT22;31071;51.478;5.710;2022-08-19T08:24:56;22.20;99.90
45339;DHT22;31071;51.478;5.710;2022-08-19T08:27:24;22.40;99.90
45339;DHT22;31071;51.478;5.710;2022-08-19T08:29:49;22.60;99.90
45339;DHT22;31071;51.478;5.710;2022-08-19T08:32:15;22.60;99.90
45339;DHT22;31071;51.478;5.710;2022-08-19T08:34:41;22.70;99.90
45339;DHT22;31071;51.478;5.710;2022-08-19T08:37:13;22.70;99.90
45339;DHT22;31071;51.478;5.710;2022-08-19T08:39:38;22.60;99.90
45339;DHT22;31071;51.478;5.710;2022-08-19T08:42:20;22.60;99.90
45339;DHT22;31071;51.478;5.710;2022-08-19T08:45:00;22.80;99.90
45339;DHT22;31071;51.478;5.710;2022-08-19T08:47:46;22.90;99.90
45339;DHT22;31071;51.478;5.710;2022-08-19T08:50:20;23.10;99.90
45339;DHT22;31071;51.478;5.710;2022-08-19T08:52:51;23.30;99.90
45339;DHT22;31071;51.478;5.710;2022-08-19T08:55:21;23.10;99.90
45339;DHT22;31071;51.478;5.710;2022-08-19T09:00:38;23.20;99.90
45339;DHT22;31071;51.478;5.710;2022-08-19T09:03:05;23.00;99.90
45339;DHT22;31071;51.478;5.710;2022-08-19T09:05:45;22.80;99.90
45339;DHT22;31071;51.478;5.710;2022-08-19T09:08:30;22.90;99.90
45339;DHT22;31071;51.478;5.710;2022-08-19T09:10:58;22.90;99.90
45339;DHT22;31071;51.478;5.710;2022-08-19T09:16:34;23.00;99.90
45339;DHT22;31071;51.478;5.710;2022-08-19T09:19:04;23.20;99.90
45339;DHT22;31071;51.478;5.710;2022-08-19T09:21:31;23.10;99.90
45339;DHT22;31071;51.478;5.710;2022-08-19T09:23:57;23.30;99.90
45339;DHT22;31071;51.478;5.710;2022-08-19T09:26:24;23.50;99.90
45339;DHT22;31071;51.478;5.710;2022-08-19T09:28:52;23.30;99.90
45339;DHT22;31071;51.478;5.710;2022-08-19T09:31:23;23.50;99.50
45339;DHT22;31071;51.478;5.710;2022-08-19T09:33:50;23.80;99.10
45339;DHT22;31071;51.478;5.710;2022-08-19T09:36:18;24.00;99.10
45339;DHT22;31071;51.478;5.710;2022-08-19T09:38:45;24.00;98.80
45339;DHT22;31071;51.478;5.710;2022-08-19T09:41:17;24.20;98.10
45339;DHT22;31071;51.478;5.710;2022-08-19T09:43:50;24.40;97.90
45339;DHT22;31071;51.478;5.710;2022-08-19T09:46:29;24.60;98.00
45339;DHT22;31071;51.478;5.710;2022-08-19T09:49:00;24.70;97.10
45339;DHT22;31071;51.478;5.710;2022-08-19T09:51:28;24.80;96.90
45339;DHT22;31071;51.478;5.710;2022-08-19T09:53:55;25.10;96.60
45339;DHT22;31071;51.478;5.710;2022-08-19T09:56:24;25.30;96.90
45339;DHT22;31071;51.478;5.710;2022-08-19T09:58:49;25.50;96.30
45339;DHT22;31071;51.478;5.710;2022-08-19T10:01:21;25.20;95.90
45339;DHT22;31071;51.478;5.710;2022-08-19T10:03:49;25.30;96.00
45339;DHT22;31071;51.478;5.710;2022-08-19T10:06:15;25.60;96.00
45339;DHT22;31071;51.478;5.710;2022-08-19T10:08:41;25.20;94.90
45339;DHT22;31071;51.478;5.710;2022-08-19T10:11:09;25.20;95.20
45339;DHT22;31071;51.478;5.710;2022-08-19T10:13:35;25.60;95.00
45339;DHT22;31071;51.478;5.710;2022-08-19T10:16:11;25.70;94.60
45339;DHT22;31071;51.478;5.710;2022-08-19T10:18:38;25.60;94.80
45339;DHT22;31071;51.478;5.710;2022-08-19T10:21:24;25.00;95.60
45339;DHT22;31071;51.478;5.710;2022-08-19T10:23:51;24.60;96.80
45339;DHT22;31071;51.478;5.710;2022-08-19T10:26:31;24.80;97.40
45339;DHT22;31071;51.478;5.710;2022-08-19T10:28:57;25.20;97.10
45339;DHT22;31071;51.478;5.710;2022-08-19T10:31:28;25.30;96.80
45339;DHT22;31071;51.478;5.710;2022-08-19T10:33:54;25.30;96.50
45339;DHT22;31071;51.478;5.710;2022-08-19T10:36:25;25.30;96.70
45339;DHT22;31071;51.478;5.710;2022-08-19T10:38:53;25.30;96.40
45339;DHT22;31071;51.478;5.710;2022-08-19T10:41:21;25.10;96.90
45339;DHT22;31071;51.478;5.710;2022-08-19T10:43:51;25.20;97.30
45339;DHT22;31071;51.478;5.710;2022-08-19T10:46:17;25.20;96.80
45339;DHT22;31071;51.478;5.710;2022-08-19T10:48:44;25.30;96.50
45339;DHT22;31071;51.478;5.710;2022-08-19T10:51:10;25.20;96.80
45339;DHT22;31071;51.478;5.710;2022-08-19T10:53:56;25.20;96.70
45339;DHT22;31071;51.478;5.710;2022-08-19T10:56:27;25.10;96.60
45339;DHT22;31071;51.478;5.710;2022-08-19T10:59:12;25.00;96.70
45339;DHT22;31071;51.478;5.710;2022-08-19T11:01:39;25.00;96.70
45339;DHT22;31071;51.478;5.710;2022-08-19T11:04:05;25.20;96.80
45339;DHT22;31071;51.478;5.710;2022-08-19T11:06:34;26.00;95.80
45339;DHT22;31071;51.478;5.710;2022-08-19T11:08:59;26.20;95.00
45339;DHT22;31071;51.478;5.710;2022-08-19T11:11:26;26.40;94.30
45339;DHT22;31071;51.478;5.710;2022-08-19T11:13:52;27.30;93.50
45339;DHT22;31071;51.478;5.710;2022-08-19T11:16:21;28.10;91.30
45339;DHT22;31071;51.478;5.710;2022-08-19T11:18:52;28.20;90.70
45339;DHT22;31071;51.478;5.710;2022-08-19T11:21:21;28.40;90.20
45339;DHT22;31071;51.478;5.710;2022-08-19T11:23:49;28.00;90.10
45339;DHT22;31071;51.478;5.710;2022-08-19T11:26:17;27.50;90.60
45339;DHT22;31071;51.478;5.710;2022-08-19T11:28:43;27.30;91.10
45339;DHT22;31071;51.478;5.710;2022-08-19T11:31:16;28.50;90.00
45339;DHT22;31071;51.478;5.710;2022-08-19T11:33:42;28.90;87.30
45339;DHT22;31071;51.478;5.710;2022-08-19T11:36:08;28.80;85.80
45339;DHT22;31071;51.478;5.710;2022-08-19T11:38:35;29.50;85.60
45339;DHT22;31071;51.478;5.710;2022-08-19T11:41:04;30.60;81.30
45339;DHT22;31071;51.478;5.710;2022-08-19T11:43:30;29.50;82.60
45339;DHT22;31071;51.478;5.710;2022-08-19T11:45:56;28.70;85.50
45339;DHT22;31071;51.478;5.710;2022-08-19T11:48:22;29.50;83.40
45339;DHT22;31071;51.478;5.710;2022-08-19T11:50:49;30.60;79.50
45339;DHT22;31071;51.478;5.710;2022-08-19T11:53:19;30.80;78.40
45339;DHT22;31071;51.478;5.710;2022-08-19T11:55:52;31.50;75.80
45339;DHT22;31071;51.478;5.710;2022-08-19T11:58:21;32.30;74.10
45339;DHT22;31071;51.478;5.710;2022-08-19T12:00:47;32.50;72.30
45339;DHT22;31071;51.478;5.710;2022-08-19T12:03:14;32.10;71.10
45339;DHT22;31071;51.478;5.710;2022-08-19T12:05:41;30.80;73.60
45339;DHT22;31071;51.478;5.710;2022-08-19T12:08:07;30.20;74.10
45339;DHT22;31071;51.478;5.710;2022-08-19T12:10:34;29.40;76.70
45339;DHT22;31071;51.478;5.710;2022-08-19T12:13:00;30.50;75.20
45339;DHT22;31071;51.478;5.710;2022-08-19T12:15:26;31.00;72.50
45339;DHT22;31071;51.478;5.710;2022-08-19T12:17:53;31.70;71.30
45339;DHT22;31071;51.478;5.710;2022-08-19T12:20:22;32.20;69.00
45339;DHT22;31071;51.478;5.710;2022-08-19T12:22:48;32.70;67.70
45339;DHT22;31071;51.478;5.710;2022-08-19T12:25:13;33.40;66.20
45339;DHT22;31071;51.478;5.710;2022-08-19T12:27:39;34.00;64.50
45339;DHT22;31071;51.478;5.710;2022-08-19T12:30:07;32.90;64.10
45339;DHT22;31071;51.478;5.710;2022-08-19T12:32:33;33.10;64.50
45339;DHT22;31071;51.478;5.710;2022-08-19T12:34:59;33.50;64.20
45339;DHT22;31071;51.478;5.710;2022-08-19T12:37:24;33.80;63.30
45339;DHT22;31071;51.478;5.710;2022-08-19T12:39:50;34.00;63.30
45339;DHT22;31071;51.478;5.710;2022-08-19T12:42:16;34.00;62.80
45339;DHT22;31071;51.478;5.710;2022-08-19T12:44:43;33.30;63.40
45339;DHT22;31071;51.478;5.710;2022-08-19T12:47:10;32.30;65.10
45339;DHT22;31071;51.478;5.710;2022-08-19T12:49:37;30.80;68.50
45339;DHT22;31071;51.478;5.710;2022-08-19T12:52:08;31.00;69.80
45339;DHT22;31071;51.478;5.710;2022-08-19T12:54:35;32.10;66.90
45339;DHT22;31071;51.478;5.710;2022-08-19T12:57:05;32.40;65.90
45339;DHT22;31071;51.478;5.710;2022-08-19T12:59:31;31.80;67.70
45339;DHT22;31071;51.478;5.710;2022-08-19T13:01:57;32.20;67.40
45339;DHT22;31071;51.478;5.710;2022-08-19T13:04:22;32.60;66.50
45339;DHT22;31071;51.478;5.710;2022-08-19T13:06:48;31.00;68.00
45339;DHT22;31071;51.478;5.710;2022-08-19T13:09:13;29.60;72.00
45339;DHT22;31071;51.478;5.710;2022-08-19T13:11:39;28.50;74.80
45339;DHT22;31071;51.478;5.710;2022-08-19T13:14:04;27.80;77.20
45339;DHT22;31071;51.478;5.710;2022-08-19T13:16:31;27.60;79.30
45339;DHT22;31071;51.478;5.710;2022-08-19T13:18:57;28.30;78.90
45339;DHT22;31071;51.478;5.710;2022-08-19T13:21:26;30.20;74.30
45339;DHT22;31071;51.478;5.710;2022-08-19T13:23:53;31.50;71.60
45339;DHT22;31071;51.478;5.710;2022-08-19T13:26:20;32.50;68.60
45339;DHT22;31071;51.478;5.710;2022-08-19T13:28:45;32.70;67.00
45339;DHT22;31071;51.478;5.710;2022-08-19T13:31:32;33.00;65.80
45339;DHT22;31071;51.478;5.710;2022-08-19T13:34:19;32.10;67.00
45339;DHT22;31071;51.478;5.710;2022-08-19T13:36:48;32.30;68.20
45339;DHT22;31071;51.478;5.710;2022-08-19T13:39:13;32.10;67.80
45339;DHT22;31071;51.478;5.710;2022-08-19T13:41:44;32.70;67.20
45339;DHT22;31071;51.478;5.710;2022-08-19T13:44:14;32.80;66.70
45339;DHT22;31071;51.478;5.710;2022-08-19T13:46:49;32.20;67.60
45339;DHT22;31071;51.478;5.710;2022-08-19T13:49:18;31.40;69.70
45339;DHT22;31071;51.478;5.710;2022-08-19T13:51:44;32.00;69.40
45339;DHT22;31071;51.478;5.710;2022-08-19T13:54:11;32.30;67.80
45339;DHT22;31071;51.478;5.710;2022-08-19T13:56:44;31.00;69.70
45339;DHT22;31071;51.478;5.710;2022-08-19T13:59:11;30.60;71.50
45339;DHT22;31071;51.478;5.710;2022-08-19T14:01:37;30.20;72.00
45339;DHT22;31071;51.478;5.710;2022-08-19T14:04:03;29.70;74.20
45339;DHT22;31071;51.478;5.710;2022-08-19T14:06:33;30.00;74.50
45339;DHT22;31071;51.478;5.710;2022-08-19T14:08:58;30.60;72.90
45339;DHT22;31071;51.478;5.710;2022-08-19T14:11:25;30.30;74.80
45339;DHT22;31071;51.478;5.710;2022-08-19T14:13:51;30.40;74.20
45339;DHT22;31071;51.478;5.710;2022-08-19T14:16:18;30.20;74.10
45339;DHT22;31071;51.478;5.710;2022-08-19T14:18:44;30.20;73.80
45339;DHT22;31071;51.478;5.710;2022-08-19T14:21:20;30.20;74.50
45339;DHT22;31071;51.478;5.710;2022-08-19T14:23:46;30.70;73.90
45339;DHT22;31071;51.478;5.710;2022-08-19T14:26:15;31.00;72.10
45339;DHT22;31071;51.478;5.710;2022-08-19T14:28:42;30.30;73.80
45339;DHT22;31071;51.478;5.710;2022-08-19T14:31:09;29.70;75.00
45339;DHT22;31071;51.478;5.710;2022-08-19T14:33:35;29.80;75.40
45339;DHT22;31071;51.478;5.710;2022-08-19T14:36:01;29.50;76.20
45339;DHT22;31071;51.478;5.710;2022-08-19T14:38:26;29.70;76.70
45339;DHT22;31071;51.478;5.710;2022-08-19T14:40:52;30.40;75.20
45339;DHT22;31071;51.478;5.710;2022-08-19T14:43:18;30.30;74.10
45339;DHT22;31071;51.478;5.710;2022-08-19T14:45:45;30.50;74.90
45339;DHT22;31071;51.478;5.710;2022-08-19T14:48:10;30.70;74.30
45339;DHT22;31071;51.478;5.710;2022-08-19T14:50:36;30.90;74.10
45339;DHT22;31071;51.478;5.710;2022-08-19T14:53:08;30.10;73.80
45339;DHT22;31071;51.478;5.710;2022-08-19T14:55:34;30.00;73.90
45339;DHT22;31071;51.478;5.710;2022-08-19T14:58:00;29.90;74.10
45339;DHT22;31071;51.478;5.710;2022-08-19T15:00:27;29.60;75.30
45339;DHT22;31071;51.478;5.710;2022-08-19T15:02:52;29.10;77.10
45339;DHT22;31071;51.478;5.710;2022-08-19T15:05:20;28.70;79.00
45339;DHT22;31071;51.478;5.710;2022-08-19T15:07:46;28.30;79.90
45339;DHT22;31071;51.478;5.710;2022-08-19T15:10:13;28.20;80.50
45339;DHT22;31071;51.478;5.710;2022-08-19T15:12:39;28.20;81.10
45339;DHT22;31071;51.478;5.710;2022-08-19T15:15:13;28.00;82.20
45339;DHT22;31071;51.478;5.710;2022-08-19T15:17:41;27.80;82.60
45339;DHT22;31071;51.478;5.710;2022-08-19T15:20:07;27.50;84.00
45339;DHT22;31071;51.478;5.710;2022-08-19T15:22:33;27.50;84.00
45339;DHT22;31071;51.478;5.710;2022-08-19T15:25:00;27.30;84.50
45339;DHT22;31071;51.478;5.710;2022-08-19T15:27:33;27.10;84.40
45339;DHT22;31071;51.478;5.710;2022-08-19T15:30:01;27.10;84.40
45339;DHT22;31071;51.478;5.710;2022-08-19T15:32:26;27.00;84.40
45339;DHT22;31071;51.478;5.710;2022-08-19T15:34:53;27.10;84.70
45339;DHT22;31071;51.478;5.710;2022-08-19T15:37:20;26.80;85.20
45339;DHT22;31071;51.478;5.710;2022-08-19T15:39:48;26.70;85.60
45339;DHT22;31071;51.478;5.710;2022-08-19T15:42:13;26.70;86.30